Time,TemperatureF,DewpointF,PressureIn,WindDirection,WindDirectionDegrees,WindSpeedMPH,WindSpeedGustMPH,Humidity,HourlyPrecipIn,Conditions,Clouds,dailyrainin,SolarRadiationWatts/m^2,SoftwareType,DateUTC
2013-09-13 00:04:00,54.9,47.9,30.09,North,1,1.0,-999.0,77,0.00,,,0.00,0,WeatherHawk,2013-09-13 05:04:00,
2013-09-13 00:09:00,54.6,47.9,30.09,NNE,24,0.0,-999.0,78,0.00,,,0.00,0,WeatherHawk,2013-09-13 05:09:00,
2013-09-13 00:14:00,54.1,47.8,30.09,North,10,0.0,-999.0,79,0.00,,,0.00,0,WeatherHawk,2013-09-13 05:14:00,
2013-09-13 00:24:00,54.6,48.2,30.10,NNE,27,3.0,-999.0,79,0.00,,,0.00,0,WeatherHawk,2013-09-13 05:24:00,
2013-09-13 00:29:00,54.0,48.3,30.09,NNE,16,1.0,-999.0,81,0.00,,,0.00,0,WeatherHawk,2013-09-13 05:29:00,
2013-09-13 00:34:00,52.8,47.8,30.09,NNE,13,0.0,-999.0,83,0.00,,,0.00,0,WeatherHawk,2013-09-13 05:34:00,
2013-09-13 00:39:00,53.8,49.7,30.09,NNE,13,0.0,-999.0,86,0.00,,,0.00,0,WeatherHawk,2013-09-13 05:39:00,
2013-09-13 00:44:00,52.0,48.2,30.10,NNE,13,0.0,-999.0,87,0.00,,,0.00,0,WeatherHawk,2013-09-13 05:44:00,
2013-09-13 00:49:00,53.0,50.1,30.10,NNE,13,0.0,-999.0,90,0.00,,,0.00,0,WeatherHawk,2013-09-13 05:49:00,
2013-09-13 00:54:00,51.8,49.3,30.10,NNE,13,0.0,-999.0,91,0.00,,,0.00,0,WeatherHawk,2013-09-13 05:54:00,
2013-09-13 00:59:00,51.3,49.1,30.10,NNE,13,0.0,-999.0,92,0.00,,,0.00,0,WeatherHawk,2013-09-13 05:59:00,
2013-09-13 01:04:00,50.4,49.0,30.09,NNE,13,0.0,-999.0,95,0.00,,,0.00,0,WeatherHawk,2013-09-13 06:04:00,
2013-09-13 01:09:00,50.8,50.0,30.10,NNE,13,0.0,-999.0,97,0.00,,,0.00,0,WeatherHawk,2013-09-13 06:09:00,
2013-09-13 01:14:00,50.8,50.2,30.10,NNE,13,0.0,-999.0,98,0.00,,,0.00,0,WeatherHawk,2013-09-13 06:14:00,
2013-09-13 01:19:00,49.6,49.6,30.11,NNE,13,0.0,-999.0,100,0.00,,,0.00,0,WeatherHawk,2013-09-13 06:19:00,
2013-09-13 01:29:00,47.5,47.5,30.10,NNE,13,0.0,-999.0,100,0.00,,,0.00,0,WeatherHawk,2013-09-13 06:29:00,
2013-09-13 01:34:00,49.6,49.6,30.11,NNE,13,0.0,-999.0,100,0.00,,,0.00,0,WeatherHawk,2013-09-13 06:34:00,
2013-09-13 01:44:00,49.5,49.5,30.11,NNE,13,0.0,-999.0,100,0.00,,,0.00,0,WeatherHawk,2013-09-13 06:44:00,
2013-09-13 01:49:00,48.5,48.5,30.11,NNE,13,0.0,-999.0,100,0.00,,,0.00,0,WeatherHawk,2013-09-13 06:49:00,
2013-09-13 01:59:00,48.3,48.3,30.11,NNE,13,0.0,-999.0,100,0.00,,,0.00,0,WeatherHawk,2013-09-13 06:59:00,
2013-09-13 02:04:00,48.6,48.6,30.11,NNE,13,0.0,-999.0,100,0.00,,,0.00,0,WeatherHawk,2013-09-13 07:04:00,
2013-09-13 02:09:00,47.8,47.8,30.11,NNW,333,0.0,-999.0,100,0.00,,,0.00,0,WeatherHawk,2013-09-13 07:09:00,
2013-09-13 02:14:00,47.9,47.9,30.12,NW,320,0.0,-999.0,100,0.00,,,0.00,0,WeatherHawk,2013-09-13 07:14:00,
2013-09-13 02:19:00,48.2,48.2,30.11,NW,320,0.0,-999.0,100,0.00,,,0.00,0,WeatherHawk,2013-09-13 07:19:00,
2013-09-13 02:24:00,47.7,47.7,30.10,NW,318,0.0,-999.0,100,0.00,,,0.00,0,WeatherHawk,2013-09-13 07:24:00,
2013-09-13 02:29:00,47.1,47.1,30.11,NW,320,0.0,-999.0,100,0.00,,,0.00,0,WeatherHawk,2013-09-13 07:29:00,
2013-09-13 02:34:00,47.1,47.1,30.12,NW,316,0.0,-999.0,100,0.00,,,0.00,0,WeatherHawk,2013-09-13 07:34:00,
2013-09-13 02:39:00,47.7,47.7,30.11,NNE,13,0.0,-999.0,100,0.00,,,0.00,0,WeatherHawk,2013-09-13 07:39:00,
2013-09-13 02:44:00,47.9,47.9,30.11,NNE,12,0.0,-999.0,100,0.00,,,0.00,0,WeatherHawk,2013-09-13 07:44:00,
2013-09-13 02:49:00,47.8,47.8,30.11,North,3,0.0,-999.0,100,0.00,,,0.00,0,WeatherHawk,2013-09-13 07:49:00,
2013-09-13 02:59:00,47.5,47.5,30.11,NNW,348,0.0,-999.0,100,0.00,,,0.00,0,WeatherHawk,2013-09-13 07:59:00,
2013-09-13 03:04:00,47.8,47.8,30.11,NNE,20,0.0,-999.0,100,0.00,,,0.00,0,WeatherHawk,2013-09-13 08:04:00,
2013-09-13 03:09:00,47.2,47.2,30.11,NNE,20,0.0,-999.0,100,0.00,,,0.00,0,WeatherHawk,2013-09-13 08:09:00,
2013-09-13 03:14:00,46.9,46.9,30.11,NNE,20,0.0,-999.0,100,0.00,,,0.00,0,WeatherHawk,2013-09-13 08:14:00,
2013-09-13 03:19:00,46.6,46.6,30.12,NW,322,0.0,-999.0,100,0.00,,,0.00,0,WeatherHawk,2013-09-13 08:19:00,
2013-09-13 03:29:00,47.5,47.5,30.12,NNE,16,0.0,-999.0,100,0.00,,,0.00,0,WeatherHawk,2013-09-13 08:29:00,
2013-09-13 03:34:00,46.8,46.8,30.13,NNE,16,0.0,-999.0,100,0.00,,,0.00,0,WeatherHawk,2013-09-13 08:34:00,
2013-09-13 03:39:00,46.7,46.7,30.12,NNW,339,0.0,-999.0,100,0.00,,,0.00,0,WeatherHawk,2013-09-13 08:39:00,
2013-09-13 03:44:00,47.9,47.9,30.12,NNE,20,3.0,-999.0,100,0.00,,,0.00,0,WeatherHawk,2013-09-13 08:44:00,
2013-09-13 03:49:00,47.8,47.8,30.11,North,7,2.0,-999.0,100,0.00,,,0.00,0,WeatherHawk,2013-09-13 08:49:00,
2013-09-13 03:54:00,47.4,47.2,30.13,NE,34,0.0,-999.0,99,0.00,,,0.00,1,WeatherHawk,2013-09-13 08:54:00,
2013-09-13 04:04:00,46.7,46.2,30.13,North,0,2.0,-999.0,98,0.00,,,0.00,0,WeatherHawk,2013-09-13 09:04:00,
2013-09-13 04:14:00,47.5,46.6,30.12,NNE,14,5.0,-999.0,97,0.00,,,0.00,0,WeatherHawk,2013-09-13 09:14:00,
2013-09-13 04:19:00,46.3,45.8,30.12,North,1,0.0,-999.0,98,0.00,,,0.00,0,WeatherHawk,2013-09-13 09:19:00,
2013-09-13 04:24:00,46.8,46.6,30.12,North,9,2.0,-999.0,99,0.00,,,0.00,0,WeatherHawk,2013-09-13 09:24:00,
2013-09-13 04:29:00,46.7,46.1,30.13,NNE,14,0.0,-999.0,98,0.00,,,0.00,1,WeatherHawk,2013-09-13 09:29:00,
2013-09-13 04:34:00,46.3,45.7,30.13,North,7,0.0,-999.0,98,0.00,,,0.00,0,WeatherHawk,2013-09-13 09:34:00,
2013-09-13 04:44:00,45.1,45.1,30.13,North,7,0.0,-999.0,100,0.00,,,0.00,0,WeatherHawk,2013-09-13 09:44:00,
2013-09-13 04:49:00,43.9,43.9,30.12,NW,318,0.0,-999.0,100,0.00,,,0.00,0,WeatherHawk,2013-09-13 09:49:00,
2013-09-13 04:54:00,45.0,45.0,30.13,NW,318,0.0,-999.0,100,0.00,,,0.00,0,WeatherHawk,2013-09-13 09:54:00,
2013-09-13 05:04:00,44.9,44.9,30.13,NW,318,0.0,-999.0,100,0.00,,,0.00,0,WeatherHawk,2013-09-13 10:04:00,
2013-09-13 05:09:00,44.1,44.1,30.13,NW,318,0.0,-999.0,100,0.00,,,0.00,0,WeatherHawk,2013-09-13 10:09:00,
2013-09-13 05:14:00,44.1,44.1,30.12,NW,318,0.0,-999.0,100,0.00,,,0.00,0,WeatherHawk,2013-09-13 10:14:00,
2013-09-13 05:19:00,44.0,44.0,30.13,NW,318,0.0,-999.0,100,0.00,,,0.00,1,WeatherHawk,2013-09-13 10:19:00,
2013-09-13 05:24:00,44.4,44.4,30.13,NW,318,0.0,-999.0,100,0.00,,,0.00,0,WeatherHawk,2013-09-13 10:24:00,
2013-09-13 05:29:00,43.7,43.7,30.14,NW,318,0.0,-999.0,100,0.00,,,0.00,0,WeatherHawk,2013-09-13 10:29:00,
2013-09-13 05:34:00,44.0,44.0,30.14,NW,318,0.0,-999.0,100,0.00,,,0.00,0,WeatherHawk,2013-09-13 10:34:00,
2013-09-13 05:44:00,43.1,43.1,30.13,NW,317,0.0,-999.0,100,0.00,,,0.00,0,WeatherHawk,2013-09-13 10:44:00,
2013-09-13 05:49:00,44.2,44.2,30.14,NW,317,0.0,-999.0,100,0.00,,,0.00,0,WeatherHawk,2013-09-13 10:49:00,
2013-09-13 05:54:00,43.2,43.2,30.14,NW,317,0.0,-999.0,100,0.00,,,0.00,0,WeatherHawk,2013-09-13 10:54:00,
2013-09-13 05:59:00,43.3,43.3,30.13,NW,317,0.0,-999.0,100,0.00,,,0.00,0,WeatherHawk,2013-09-13 10:59:00,
2013-09-13 06:04:00,43.1,43.1,30.14,NW,317,0.0,-999.0,100,0.00,,,0.00,0,WeatherHawk,2013-09-13 11:04:00,
2013-09-13 06:09:00,44.4,44.4,30.13,NW,317,0.0,-999.0,100,0.00,,,0.00,0,WeatherHawk,2013-09-13 11:09:00,
2013-09-13 06:14:00,43.5,43.5,30.15,NW,322,1.0,-999.0,100,0.00,,,0.00,0,WeatherHawk,2013-09-13 11:14:00,
2013-09-13 06:19:00,44.5,44.5,30.14,NW,314,2.0,-999.0,100,0.00,,,0.00,0,WeatherHawk,2013-09-13 11:19:00,
2013-09-13 06:24:00,43.6,43.6,30.14,NW,310,0.0,-999.0,100,0.00,,,0.00,0,WeatherHawk,2013-09-13 11:24:00,
2013-09-13 06:29:00,43.2,43.2,30.14,NW,310,0.0,-999.0,100,0.00,,,0.00,2,WeatherHawk,2013-09-13 11:29:00,
2013-09-13 06:34:00,43.1,43.1,30.15,NW,310,0.0,-999.0,100,0.00,,,0.00,1,WeatherHawk,2013-09-13 11:34:00,
2013-09-13 06:39:00,43.4,43.4,30.14,NW,310,0.0,-999.0,100,0.00,,,0.00,5,WeatherHawk,2013-09-13 11:39:00,
2013-09-13 06:44:00,42.9,42.9,30.15,NW,310,0.0,-999.0,100,0.00,,,0.00,5,WeatherHawk,2013-09-13 11:44:00,
2013-09-13 06:49:00,43.0,43.0,30.16,NW,313,2.0,-999.0,100,0.00,,,0.00,8,WeatherHawk,2013-09-13 11:49:00,
2013-09-13 06:59:00,44.4,44.4,30.15,North,0,0.0,-999.0,100,0.00,,,0.00,21,WeatherHawk,2013-09-13 11:59:00,
2013-09-13 07:04:00,45.0,45.0,30.15,NW,313,0.0,-999.0,100,0.00,,,0.00,30,WeatherHawk,2013-09-13 12:04:00,
2013-09-13 07:09:00,45.0,45.0,30.15,NNE,17,0.0,-999.0,100,0.00,,,0.00,39,WeatherHawk,2013-09-13 12:09:00,
2013-09-13 07:14:00,45.6,45.6,30.15,NNE,12,1.0,-999.0,100,0.00,,,0.00,47,WeatherHawk,2013-09-13 12:14:00,
2013-09-13 07:19:00,46.0,46.0,30.16,NNE,14,4.0,-999.0,100,0.00,,,0.00,59,WeatherHawk,2013-09-13 12:19:00,
2013-09-13 07:24:00,46.2,46.2,30.16,North,1,4.0,-999.0,100,0.00,,,0.00,70,WeatherHawk,2013-09-13 12:24:00,
2013-09-13 07:29:00,47.0,47.0,30.15,North,0,3.0,-999.0,100,0.00,,,0.00,83,WeatherHawk,2013-09-13 12:29:00,
2013-09-13 07:34:00,49.0,48.5,30.16,North,4,0.0,-999.0,98,0.00,,,0.00,97,WeatherHawk,2013-09-13 12:34:00,
2013-09-13 07:39:00,49.4,48.1,30.15,SW,216,0.0,-999.0,95,0.00,,,0.00,114,WeatherHawk,2013-09-13 12:39:00,
2013-09-13 07:49:00,49.7,47.2,30.16,NNE,19,2.0,-999.0,91,0.00,,,0.00,147,WeatherHawk,2013-09-13 12:49:00,
2013-09-13 07:54:00,50.2,47.1,30.16,NW,317,2.0,-999.0,89,0.00,,,0.00,160,WeatherHawk,2013-09-13 12:54:00,
2013-09-13 07:59:00,49.2,45.2,30.15,North,1,3.0,-999.0,86,0.00,,,0.00,172,WeatherHawk,2013-09-13 12:59:00,
2013-09-13 08:04:00,49.9,45.9,30.17,NNE,19,6.0,-999.0,86,0.00,,,0.00,188,WeatherHawk,2013-09-13 13:04:00,
2013-09-13 08:09:00,50.2,45.9,30.17,NNE,15,2.0,-999.0,85,0.00,,,0.00,204,WeatherHawk,2013-09-13 13:09:00,
2013-09-13 08:14:00,49.9,44.3,30.16,NNE,24,5.0,-999.0,81,0.00,,,0.00,218,WeatherHawk,2013-09-13 13:14:00,
2013-09-13 08:24:00,52.1,46.1,30.16,North,9,2.0,-999.0,80,0.00,,,0.00,249,WeatherHawk,2013-09-13 13:24:00,
2013-09-13 08:29:00,51.3,43.3,30.16,North,350,4.0,-999.0,74,0.00,,,0.00,262,WeatherHawk,2013-09-13 13:29:00,
2013-09-13 08:34:00,51.9,43.5,30.17,North,4,3.0,-999.0,73,0.00,,,0.00,278,WeatherHawk,2013-09-13 13:34:00,
2013-09-13 08:39:00,50.7,42.3,30.17,NNE,23,5.0,-999.0,73,0.00,,,0.00,293,WeatherHawk,2013-09-13 13:39:00,
2013-09-13 08:44:00,51.1,42.0,30.17,NNE,15,4.0,-999.0,71,0.00,,,0.00,309,WeatherHawk,2013-09-13 13:44:00,
2013-09-13 08:49:00,50.1,41.1,30.16,NNE,12,5.0,-999.0,71,0.00,,,0.00,325,WeatherHawk,2013-09-13 13:49:00,
2013-09-13 08:54:00,51.6,42.1,30.17,North,1,4.0,-999.0,70,0.00,,,0.00,340,WeatherHawk,2013-09-13 13:54:00,
2013-09-13 09:04:00,55.0,44.3,30.16,NE,44,3.0,-999.0,67,0.00,,,0.00,367,WeatherHawk,2013-09-13 14:04:00,
2013-09-13 09:09:00,52.5,41.0,30.17,NNE,21,6.0,-999.0,65,0.00,,,0.00,388,WeatherHawk,2013-09-13 14:09:00,
2013-09-13 09:19:00,52.4,39.8,30.18,NNE,32,4.0,-999.0,62,0.00,,,0.00,411,WeatherHawk,2013-09-13 14:19:00,
2013-09-13 09:24:00,53.4,39.9,30.19,NE,50,6.0,-999.0,60,0.00,,,0.00,427,WeatherHawk,2013-09-13 14:24:00,
2013-09-13 09:29:00,52.9,38.9,30.17,NNE,14,4.0,-999.0,59,0.00,,,0.00,444,WeatherHawk,2013-09-13 14:29:00,
2013-09-13 09:39:00,52.3,38.4,30.18,NNE,24,4.0,-999.0,59,0.00,,,0.00,160,WeatherHawk,2013-09-13 14:39:00,
2013-09-13 09:44:00,53.4,37.2,30.18,NE,55,5.0,-999.0,54,0.00,,,0.00,364,WeatherHawk,2013-09-13 14:44:00,
2013-09-13 09:49:00,55.3,39.4,30.19,NE,44,5.0,-999.0,55,0.00,,,0.00,498,WeatherHawk,2013-09-13 14:49:00,
2013-09-13 09:54:00,54.5,39.1,30.19,NNE,24,5.0,-999.0,56,0.00,,,0.00,505,WeatherHawk,2013-09-13 14:54:00,
2013-09-13 10:04:00,54.4,37.1,30.19,NNW,333,6.0,-999.0,52,0.00,,,0.00,527,WeatherHawk,2013-09-13 15:04:00,
2013-09-13 10:14:00,55.1,38.8,30.19,NE,48,4.0,-999.0,54,0.00,,,0.00,553,WeatherHawk,2013-09-13 15:14:00,
2013-09-13 10:19:00,56.6,41.1,30.19,NNE,25,3.0,-999.0,56,0.00,,,0.00,563,WeatherHawk,2013-09-13 15:19:00,
2013-09-13 10:24:00,55.8,37.0,30.19,ENE,59,4.0,-999.0,49,0.00,,,0.00,574,WeatherHawk,2013-09-13 15:24:00,
2013-09-13 10:29:00,56.6,39.1,30.18,North,0,5.0,-999.0,52,0.00,,,0.00,585,WeatherHawk,2013-09-13 15:29:00,
2013-09-13 10:39:00,53.6,33.3,30.18,NNE,20,8.0,-999.0,46,0.00,,,0.00,604,WeatherHawk,2013-09-13 15:39:00,
2013-09-13 10:44:00,55.0,35.2,30.19,NE,41,4.0,-999.0,47,0.00,,,0.00,612,WeatherHawk,2013-09-13 15:44:00,
2013-09-13 10:54:00,56.3,36.3,30.19,North,0,5.0,-999.0,47,0.00,,,0.00,630,WeatherHawk,2013-09-13 15:54:00,
2013-09-13 11:04:00,57.5,36.3,30.18,NNE,14,5.0,-999.0,45,0.00,,,0.00,646,WeatherHawk,2013-09-13 16:04:00,
2013-09-13 11:09:00,57.6,36.4,30.17,North,0,3.0,-999.0,45,0.00,,,0.00,650,WeatherHawk,2013-09-13 16:09:00,
2013-09-13 11:19:00,59.1,37.2,30.18,North,4,2.0,-999.0,44,0.00,,,0.00,666,WeatherHawk,2013-09-13 16:19:00,
2013-09-13 11:24:00,55.6,32.3,30.18,East,100,6.0,-999.0,41,0.00,,,0.00,673,WeatherHawk,2013-09-13 16:24:00,
2013-09-13 11:29:00,56.2,32.8,30.18,NNW,336,7.0,-999.0,41,0.00,,,0.00,678,WeatherHawk,2013-09-13 16:29:00,
2013-09-13 11:34:00,57.1,34.8,30.18,NW,315,4.0,-999.0,43,0.00,,,0.00,685,WeatherHawk,2013-09-13 16:34:00,
2013-09-13 11:39:00,56.8,33.4,30.17,NNW,339,7.0,-999.0,41,0.00,,,0.00,689,WeatherHawk,2013-09-13 16:39:00,
2013-09-13 11:44:00,57.4,33.3,30.17,NE,37,5.0,-999.0,40,0.00,,,0.00,695,WeatherHawk,2013-09-13 16:44:00,
2013-09-13 11:49:00,58.7,36.3,30.17,North,351,2.0,-999.0,43,0.00,,,0.00,699,WeatherHawk,2013-09-13 16:49:00,
2013-09-13 11:59:00,60.2,38.2,30.17,WNW,299,4.0,-999.0,44,0.00,,,0.00,708,WeatherHawk,2013-09-13 16:59:00,
2013-09-13 12:04:00,57.7,32.9,30.17,NW,319,6.0,-999.0,39,0.00,,,0.00,711,WeatherHawk,2013-09-13 17:04:00,
2013-09-13 12:09:00,59.2,34.9,30.17,NNE,31,5.0,-999.0,40,0.00,,,0.00,716,WeatherHawk,2013-09-13 17:09:00,
2013-09-13 12:14:00,57.8,32.4,30.17,NE,35,0.0,-999.0,38,0.00,,,0.00,718,WeatherHawk,2013-09-13 17:14:00,
2013-09-13 12:19:00,60.3,37.7,30.17,North,0,1.0,-999.0,43,0.00,,,0.00,720,WeatherHawk,2013-09-13 17:19:00,
2013-09-13 12:24:00,59.8,32.8,30.17,NE,48,5.0,-999.0,36,0.00,,,0.00,722,WeatherHawk,2013-09-13 17:24:00,
2013-09-13 12:34:00,58.9,33.3,30.17,NNE,17,5.0,-999.0,38,0.00,,,0.00,724,WeatherHawk,2013-09-13 17:34:00,
2013-09-13 12:39:00,59.2,32.9,30.17,NW,307,6.0,-999.0,37,0.00,,,0.00,727,WeatherHawk,2013-09-13 17:39:00,
2013-09-13 12:44:00,61.0,34.5,30.17,NE,41,2.0,-999.0,37,0.00,,,0.00,729,WeatherHawk,2013-09-13 17:44:00,
2013-09-13 12:49:00,61.9,34.6,30.16,NW,315,2.0,-999.0,36,0.00,,,0.00,727,WeatherHawk,2013-09-13 17:49:00,
2013-09-13 12:54:00,58.0,30.5,30.16,North,4,6.0,-999.0,35,0.00,,,0.00,727,WeatherHawk,2013-09-13 17:54:00,
2013-09-13 12:59:00,60.9,33.1,30.16,West,276,0.0,-999.0,35,0.00,,,0.00,725,WeatherHawk,2013-09-13 17:59:00,
2013-09-13 13:04:00,61.1,34.6,30.16,NNW,327,1.0,-999.0,37,0.00,,,0.00,721,WeatherHawk,2013-09-13 18:04:00,
2013-09-13 13:14:00,60.9,31.6,30.15,NE,49,3.0,-999.0,33,0.00,,,0.00,722,WeatherHawk,2013-09-13 18:14:00,
2013-09-13 13:19:00,60.3,32.5,30.15,NE,44,5.0,-999.0,35,0.00,,,0.00,718,WeatherHawk,2013-09-13 18:19:00,
2013-09-13 13:24:00,62.9,34.1,30.16,NW,319,1.0,-999.0,34,0.00,,,0.00,713,WeatherHawk,2013-09-13 18:24:00,
2013-09-13 13:29:00,61.2,33.4,30.15,NW,319,6.0,-999.0,35,0.00,,,0.00,711,WeatherHawk,2013-09-13 18:29:00,
2013-09-13 13:34:00,62.0,36.1,30.14,WNW,286,4.0,-999.0,38,0.00,,,0.00,709,WeatherHawk,2013-09-13 18:34:00,
2013-09-13 13:39:00,63.1,36.4,30.15,North,11,3.0,-999.0,37,0.00,,,0.00,706,WeatherHawk,2013-09-13 18:39:00,
2013-09-13 13:44:00,61.2,33.3,30.15,North,7,4.0,-999.0,35,0.00,,,0.00,704,WeatherHawk,2013-09-13 18:44:00,
2013-09-13 13:49:00,62.6,35.9,30.14,NW,321,1.0,-999.0,37,0.00,,,0.00,696,WeatherHawk,2013-09-13 18:49:00,
2013-09-13 13:59:00,62.4,34.4,30.14,NNE,23,4.0,-999.0,35,0.00,,,0.00,687,WeatherHawk,2013-09-13 18:59:00,
2013-09-13 14:04:00,63.1,35.7,30.14,NNE,26,0.0,-999.0,36,0.00,,,0.00,683,WeatherHawk,2013-09-13 19:04:00,
2013-09-13 14:09:00,62.7,33.9,30.14,West,260,2.0,-999.0,34,0.00,,,0.00,679,WeatherHawk,2013-09-13 19:09:00,
2013-09-13 14:14:00,61.2,31.9,30.13,NW,309,8.0,-999.0,33,0.00,,,0.00,671,WeatherHawk,2013-09-13 19:14:00,
2013-09-13 14:19:00,63.1,33.5,30.14,North,11,0.0,-999.0,33,0.00,,,0.00,663,WeatherHawk,2013-09-13 19:19:00,
2013-09-13 14:24:00,64.5,38.4,30.13,NW,318,4.0,-999.0,38,0.00,,,0.00,656,WeatherHawk,2013-09-13 19:24:00,
2013-09-13 14:29:00,64.0,37.2,30.14,NNW,345,3.0,-999.0,37,0.00,,,0.00,651,WeatherHawk,2013-09-13 19:29:00,
2013-09-13 14:34:00,62.7,33.9,30.13,North,349,4.0,-999.0,34,0.00,,,0.00,644,WeatherHawk,2013-09-13 19:34:00,
2013-09-13 14:39:00,62.7,33.9,30.13,WNW,299,3.0,-999.0,34,0.00,,,0.00,633,WeatherHawk,2013-09-13 19:39:00,
2013-09-13 14:44:00,62.8,32.5,30.13,NW,315,5.0,-999.0,32,0.00,,,0.00,626,WeatherHawk,2013-09-13 19:44:00,
2013-09-13 14:54:00,62.7,33.2,30.13,North,11,4.0,-999.0,33,0.00,,,0.00,610,WeatherHawk,2013-09-13 19:54:00,
2013-09-13 14:59:00,63.0,33.4,30.12,NNW,332,3.0,-999.0,33,0.00,,,0.00,604,WeatherHawk,2013-09-13 19:59:00,
2013-09-13 15:04:00,61.3,31.2,30.12,NNE,16,8.0,-999.0,32,0.00,,,0.00,590,WeatherHawk,2013-09-13 20:04:00,
2013-09-13 15:09:00,63.8,36.4,30.12,WSW,253,2.0,-999.0,36,0.00,,,0.00,581,WeatherHawk,2013-09-13 20:09:00,
2013-09-13 15:14:00,63.8,34.1,30.12,North,7,3.0,-999.0,33,0.00,,,0.00,573,WeatherHawk,2013-09-13 20:14:00,
2013-09-13 15:19:00,64.1,35.2,30.13,WSW,255,3.0,-999.0,34,0.00,,,0.00,561,WeatherHawk,2013-09-13 20:19:00,
2013-09-13 15:24:00,63.1,34.3,30.11,North,7,2.0,-999.0,34,0.00,,,0.00,548,WeatherHawk,2013-09-13 20:24:00,
2013-09-13 15:29:00,63.9,33.4,30.11,East,86,5.0,-999.0,32,0.00,,,0.00,540,WeatherHawk,2013-09-13 20:29:00,
2013-09-13 15:34:00,64.2,34.5,30.11,NE,53,4.0,-999.0,33,0.00,,,0.00,528,WeatherHawk,2013-09-13 20:34:00,
2013-09-13 15:39:00,65.6,37.2,30.12,NE,38,0.0,-999.0,35,0.00,,,0.00,516,WeatherHawk,2013-09-13 20:39:00,
2013-09-13 15:44:00,62.9,33.4,30.12,North,351,3.0,-999.0,33,0.00,,,0.00,505,WeatherHawk,2013-09-13 20:44:00,
2013-09-13 15:49:00,63.5,33.1,30.11,NNE,23,2.0,-999.0,32,0.00,,,0.00,495,WeatherHawk,2013-09-13 20:49:00,
2013-09-13 15:54:00,63.0,32.7,30.11,NE,38,4.0,-999.0,32,0.00,,,0.00,483,WeatherHawk,2013-09-13 20:54:00,
2013-09-13 15:59:00,62.3,30.5,30.11,North,6,3.0,-999.0,30,0.00,,,0.00,466,WeatherHawk,2013-09-13 20:59:00,
2013-09-13 16:04:00,63.5,33.9,30.11,NNE,15,4.0,-999.0,33,0.00,,,0.00,457,WeatherHawk,2013-09-13 21:04:00,
2013-09-13 16:09:00,63.9,34.3,30.11,North,351,0.0,-999.0,33,0.00,,,0.00,442,WeatherHawk,2013-09-13 21:09:00,
2013-09-13 16:14:00,63.2,33.6,30.11,NNW,348,1.0,-999.0,33,0.00,,,0.00,431,WeatherHawk,2013-09-13 21:14:00,
2013-09-13 16:19:00,63.6,33.2,30.11,NE,44,5.0,-999.0,32,0.00,,,0.00,416,WeatherHawk,2013-09-13 21:19:00,
2013-09-13 16:24:00,63.8,33.4,30.10,NNE,28,5.0,-999.0,32,0.00,,,0.00,403,WeatherHawk,2013-09-13 21:24:00,
2013-09-13 16:29:00,63.3,33.0,30.11,ENE,73,2.0,-999.0,32,0.00,,,0.00,389,WeatherHawk,2013-09-13 21:29:00,
2013-09-13 16:34:00,62.6,32.3,30.11,NW,314,3.0,-999.0,32,0.00,,,0.00,374,WeatherHawk,2013-09-13 21:34:00,
2013-09-13 16:39:00,63.6,34.0,30.11,ENE,59,3.0,-999.0,33,0.00,,,0.00,359,WeatherHawk,2013-09-13 21:39:00,
2013-09-13 16:44:00,63.9,35.0,30.11,NW,307,0.0,-999.0,34,0.00,,,0.00,346,WeatherHawk,2013-09-13 21:44:00,
2013-09-13 16:54:00,63.6,34.7,30.11,NNW,330,3.0,-999.0,34,0.00,,,0.00,315,WeatherHawk,2013-09-13 21:54:00,
2013-09-13 16:59:00,63.5,35.4,30.10,NW,318,2.0,-999.0,35,0.00,,,0.00,300,WeatherHawk,2013-09-13 21:59:00,
2013-09-13 17:09:00,62.6,34.5,30.10,WNW,300,2.0,-999.0,35,0.00,,,0.00,272,WeatherHawk,2013-09-13 22:09:00,
2013-09-13 17:19:00,62.8,34.8,30.11,NE,39,4.0,-999.0,35,0.00,,,0.00,240,WeatherHawk,2013-09-13 22:19:00,
2013-09-13 17:29:00,62.7,34.7,30.10,North,6,3.0,-999.0,35,0.00,,,0.00,211,WeatherHawk,2013-09-13 22:29:00,
2013-09-13 17:39:00,62.5,34.5,30.10,NNE,14,0.0,-999.0,35,0.00,,,0.00,182,WeatherHawk,2013-09-13 22:39:00,
2013-09-13 17:44:00,62.4,36.5,30.11,WNW,286,0.0,-999.0,38,0.00,,,0.00,169,WeatherHawk,2013-09-13 22:44:00,
2013-09-13 17:49:00,61.9,36.1,30.11,NNE,20,0.0,-999.0,38,0.00,,,0.00,155,WeatherHawk,2013-09-13 22:49:00,
2013-09-13 17:54:00,61.6,35.0,30.11,NNE,14,5.0,-999.0,37,0.00,,,0.00,140,WeatherHawk,2013-09-13 22:54:00,
2013-09-13 17:59:00,61.7,35.8,30.11,NE,37,0.0,-999.0,38,0.00,,,0.00,125,WeatherHawk,2013-09-13 22:59:00,
2013-09-13 18:09:00,61.1,36.0,30.10,NNW,328,3.0,-999.0,39,0.00,,,0.00,100,WeatherHawk,2013-09-13 23:09:00,
2013-09-13 18:14:00,60.9,36.5,30.11,NNE,13,0.0,-999.0,40,0.00,,,0.00,88,WeatherHawk,2013-09-13 23:14:00,
2013-09-13 18:19:00,60.9,36.4,30.10,NNE,13,3.0,-999.0,40,0.00,,,0.00,75,WeatherHawk,2013-09-13 23:19:00,
2013-09-13 18:29:00,60.2,37.1,30.10,NNE,15,0.0,-999.0,42,0.00,,,0.00,38,WeatherHawk,2013-09-13 23:29:00,
2013-09-13 18:34:00,59.9,36.8,30.10,NE,49,0.0,-999.0,42,0.00,,,0.00,15,WeatherHawk,2013-09-13 23:34:00,
2013-09-13 18:39:00,60.0,37.4,30.10,ENE,68,4.0,-999.0,43,0.00,,,0.00,15,WeatherHawk,2013-09-13 23:39:00,
2013-09-13 18:44:00,59.0,37.7,30.09,ENE,73,0.0,-999.0,45,0.00,,,0.00,13,WeatherHawk,2013-09-13 23:44:00,
2013-09-13 18:49:00,58.7,38.5,30.10,NE,52,0.0,-999.0,47,0.00,,,0.00,13,WeatherHawk,2013-09-13 23:49:00,
2013-09-13 18:54:00,58.5,38.9,30.10,NE,42,0.0,-999.0,48,0.00,,,0.00,11,WeatherHawk,2013-09-13 23:54:00,
2013-09-13 19:04:00,57.7,40.2,30.09,ENE,72,0.0,-999.0,52,0.00,,,0.00,6,WeatherHawk,2013-09-14 00:04:00,
2013-09-13 19:09:00,56.9,40.0,30.09,NE,56,0.0,-999.0,53,0.00,,,0.00,3,WeatherHawk,2013-09-14 00:09:00,
2013-09-13 19:19:00,57.1,41.1,30.09,NE,44,3.0,-999.0,55,0.00,,,0.00,1,WeatherHawk,2013-09-14 00:19:00,
2013-09-13 19:29:00,56.0,39.6,30.08,ENE,61,0.0,-999.0,54,0.00,,,0.00,0,WeatherHawk,2013-09-14 00:29:00,
2013-09-13 19:34:00,55.5,39.1,30.09,ENE,72,0.0,-999.0,54,0.00,,,0.00,0,WeatherHawk,2013-09-14 00:34:00,
2013-09-13 19:39:00,55.8,39.9,30.09,NE,34,0.0,-999.0,55,0.00,,,0.00,0,WeatherHawk,2013-09-14 00:39:00,
2013-09-13 19:44:00,55.3,39.9,30.10,ENE,65,0.0,-999.0,56,0.00,,,0.00,0,WeatherHawk,2013-09-14 00:44:00,
2013-09-13 19:54:00,55.0,40.1,30.10,ESE,104,0.0,-999.0,57,0.00,,,0.00,0,WeatherHawk,2013-09-14 00:54:00,
2013-09-13 19:59:00,54.7,40.2,30.10,ENE,69,3.0,-999.0,58,0.00,,,0.00,0,WeatherHawk,2013-09-14 00:59:00,
2013-09-13 20:04:00,54.4,39.9,30.10,ENE,67,0.0,-999.0,58,0.00,,,0.00,1,WeatherHawk,2013-09-14 01:04:00,
2013-09-13 20:09:00,54.1,40.1,30.10,ENE,70,0.0,-999.0,59,0.00,,,0.00,0,WeatherHawk,2013-09-14 01:09:00,
2013-09-13 20:19:00,54.1,40.1,30.10,ENE,72,0.0,-999.0,59,0.00,,,0.00,0,WeatherHawk,2013-09-14 01:19:00,
2013-09-13 20:24:00,54.1,40.5,30.10,ENE,73,0.0,-999.0,60,0.00,,,0.00,0,WeatherHawk,2013-09-14 01:24:00,
2013-09-13 20:29:00,54.1,40.5,30.11,ENE,64,0.0,-999.0,60,0.00,,,0.00,0,WeatherHawk,2013-09-14 01:29:00,
2013-09-13 20:34:00,53.9,40.8,30.10,SSW,200,0.0,-999.0,61,0.00,,,0.00,0,WeatherHawk,2013-09-14 01:34:00,
2013-09-13 20:39:00,52.7,40.1,30.11,ESE,105,0.0,-999.0,62,0.00,,,0.00,0,WeatherHawk,2013-09-14 01:39:00,
2013-09-13 20:44:00,53.6,40.9,30.11,ENE,74,1.0,-999.0,62,0.00,,,0.00,0,WeatherHawk,2013-09-14 01:44:00,
2013-09-13 20:49:00,53.1,40.4,30.10,NE,56,0.0,-999.0,62,0.00,,,0.00,0,WeatherHawk,2013-09-14 01:49:00,
2013-09-13 20:54:00,53.3,40.6,30.11,ENE,74,0.0,-999.0,62,0.00,,,0.00,1,WeatherHawk,2013-09-14 01:54:00,
2013-09-13 21:04:00,52.1,39.9,30.11,ENE,75,0.0,-999.0,63,0.00,,,0.00,0,WeatherHawk,2013-09-14 02:04:00,
2013-09-13 21:14:00,52.1,40.3,30.11,ENE,63,0.0,-999.0,64,0.00,,,0.00,0,WeatherHawk,2013-09-14 02:14:00,
2013-09-13 21:24:00,52.5,40.7,30.10,ENE,61,0.0,-999.0,64,0.00,,,0.00,0,WeatherHawk,2013-09-14 02:24:00,
2013-09-13 21:29:00,52.2,40.8,30.10,East,80,0.0,-999.0,65,0.00,,,0.00,0,WeatherHawk,2013-09-14 02:29:00,
2013-09-13 21:34:00,52.2,41.6,30.10,East,84,0.0,-999.0,67,0.00,,,0.00,0,WeatherHawk,2013-09-14 02:34:00,
2013-09-13 21:39:00,51.4,40.8,30.10,ESE,110,0.0,-999.0,67,0.00,,,0.00,0,WeatherHawk,2013-09-14 02:39:00,
2013-09-13 21:44:00,51.8,41.6,30.11,ESE,109,0.0,-999.0,68,0.00,,,0.00,0,WeatherHawk,2013-09-14 02:44:00,
2013-09-13 21:49:00,50.4,40.7,30.11,ESE,109,0.0,-999.0,69,0.00,,,0.00,0,WeatherHawk,2013-09-14 02:49:00,
2013-09-13 21:54:00,49.6,40.5,30.10,ESE,109,0.0,-999.0,71,0.00,,,0.00,0,WeatherHawk,2013-09-14 02:54:00,
2013-09-13 21:59:00,50.4,42.4,30.11,ESE,109,0.0,-999.0,74,0.00,,,0.00,0,WeatherHawk,2013-09-14 02:59:00,
2013-09-13 22:04:00,50.1,43.6,30.10,ESE,109,0.0,-999.0,78,0.00,,,0.00,0,WeatherHawk,2013-09-14 03:04:00,
2013-09-13 22:09:00,50.3,44.7,30.11,ESE,109,0.0,-999.0,81,0.00,,,0.00,0,WeatherHawk,2013-09-14 03:09:00,
2013-09-13 22:19:00,50.0,44.4,30.10,ESE,109,0.0,-999.0,81,0.00,,,0.00,0,WeatherHawk,2013-09-14 03:19:00,
2013-09-13 22:24:00,51.0,45.4,30.10,ESE,109,0.0,-999.0,81,0.00,,,0.00,1,WeatherHawk,2013-09-14 03:24:00,
2013-09-13 22:29:00,50.1,43.6,30.10,East,82,0.0,-999.0,78,0.00,,,0.00,0,WeatherHawk,2013-09-14 03:29:00,
2013-09-13 22:34:00,50.4,44.2,30.10,East,82,0.0,-999.0,79,0.00,,,0.00,0,WeatherHawk,2013-09-14 03:34:00,
2013-09-13 22:39:00,50.3,43.3,30.09,SSE,157,0.0,-999.0,77,0.00,,,0.00,0,WeatherHawk,2013-09-14 03:39:00,
2013-09-13 22:44:00,51.2,43.9,30.10,SSW,192,0.0,-999.0,76,0.00,,,0.00,0,WeatherHawk,2013-09-14 03:44:00,
2013-09-13 22:49:00,50.9,43.3,30.10,SSE,155,0.0,-999.0,75,0.00,,,0.00,0,WeatherHawk,2013-09-14 03:49:00,
2013-09-13 22:59:00,50.4,42.7,30.10,ESE,119,0.0,-999.0,75,0.00,,,0.00,0,WeatherHawk,2013-09-14 03:59:00,
2013-09-13 23:04:00,50.6,43.3,30.09,SSE,157,0.0,-999.0,76,0.00,,,0.00,0,WeatherHawk,2013-09-14 04:04:00,
2013-09-13 23:09:00,50.4,43.5,30.09,SE,132,0.0,-999.0,77,0.00,,,0.00,0,WeatherHawk,2013-09-14 04:09:00,
2013-09-13 23:14:00,50.1,43.5,30.10,SE,132,0.0,-999.0,78,0.00,,,0.00,0,WeatherHawk,2013-09-14 04:14:00,
2013-09-13 23:19:00,50.2,43.9,30.10,ESE,118,0.0,-999.0,79,0.00,,,0.00,0,WeatherHawk,2013-09-14 04:19:00,
2013-09-13 23:24:00,50.2,44.3,30.09,ESE,119,0.0,-999.0,80,0.00,,,0.00,0,WeatherHawk,2013-09-14 04:24:00,
2013-09-13 23:29:00,50.0,44.4,30.10,SE,133,1.0,-999.0,81,0.00,,,0.00,0,WeatherHawk,2013-09-14 04:29:00,
2013-09-13 23:39:00,47.3,41.5,30.09,SE,141,0.0,-999.0,80,0.00,,,0.00,0,WeatherHawk,2013-09-14 04:39:00,
2013-09-13 23:44:00,47.2,42.6,30.10,South,174,0.0,-999.0,84,0.00,,,0.00,1,WeatherHawk,2013-09-14 04:44:00,
2013-09-13 23:49:00,46.6,43.0,30.10,South,174,0.0,-999.0,87,0.00,,,0.00,0,WeatherHawk,2013-09-14 04:49:00,
2013-09-13 23:54:00,46.2,43.5,30.10,South,174,0.0,-999.0,90,0.00,,,0.00,0,WeatherHawk,2013-09-14 04:54:00,